Matthew K — WCZ9961 — position and weather

sailwx.info

Track history (hours):
 
Tides and Currents Weather Stations Pressure Air Temp Water Temp Dewpoint Dewpoint Depression Visibility Wind Speed Wind Dir Waves Ship Positions

Matthew K

Owner: G & H Towing Company, GALVESTON, TX. More information available from US FCC via Universal Licensing System and Coast Guard Vessel Documentation Center.

Last reported at 2017-Sep-26 13:28 UTC. Time now 2017-Sep-26 16:35 UTC.
Position N 29°45' W 095°06'.

Length 30 m; draft 5.2 m.

Type: Tug. MMSI: 366921830.

Date/timePositionNaut miles runAvg speedWind from/ knotsBaromVisibWave heightAir tempDewpointWater temp
2017-Sep-26 13:28N 29°45' W 095°06'2 3.3
2017-Sep-26 12:57N 29°46' W 095°05'5 8.1
2017-Sep-26 12:21N 29°42' W 095°01'3 8.6
2017-Sep-26 11:59N 29°40' W 094°59'2 3.5
2017-Sep-26 11:30N 29°42' W 094°60'4 7.7
2017-Sep-26 11:00N 29°44' W 095°03'3 1.9
2017-Sep-26 09:26N 29°45' W 095°06'1 1.5
2017-Sep-26 08:41N 29°45' W 095°06'1 1.5
2017-Sep-26 07:41N 29°44' W 095°07'0 1.2
2017-Sep-26 07:30N 29°45' W 095°07'0 0.0
2017-Sep-26 07:00N 29°45' W 095°07'0 0.0
2017-Sep-26 06:26N 29°45' W 095°07'0 0.0
2017-Sep-26 06:00N 29°45' W 095°07'0 0.0
2017-Sep-26 05:30N 29°45' W 095°07'1 1.0
2017-Sep-26 04:29N 29°44' W 095°08'2 3.0
2017-Sep-26 03:58N 29°45' W 095°06'0 0.0
2017-Sep-25 09:48N 29°45' W 095°06'0 0.0
2017-Sep-25 09:30N 29°45' W 095°06'0 0.0
2017-Sep-25 09:00N 29°45' W 095°06'0 0.0
2017-Sep-25 08:30N 29°45' W 095°06'0 0.0
2017-Sep-25 02:20N 29°45' W 095°06'0 0.0
2017-Sep-24 23:37N 29°45' W 095°06'0 0.0
2017-Sep-24 23:20N 29°45' W 095°06'0 0.0
2017-Sep-24 23:00N 29°45' W 095°06'0 0.0
2017-Sep-24 22:29N 29°45' W 095°06'0 0.0
2017-Sep-24 21:54N 29°45' W 095°06'1 2.9
2017-Sep-24 21:29N 29°44' W 095°08'0 0.0
2017-Sep-24 21:00N 29°44' W 095°08'1 2.0
2017-Sep-24 20:30N 29°44' W 095°06'0 0.0
2017-Sep-24 17:05N 29°44' W 095°07'0 0.4
2017-Sep-24 16:39N 29°44' W 095°07'1 0.1
2017-Sep-24 11:44N 29°44' W 095°07'1 0.5
2017-Sep-24 10:08N 29°44' W 095°07'2 3.4
2017-Sep-24 09:40N 29°46' W 095°05'0 1.0
2017-Sep-24 09:23N 29°46' W 095°05'0 1.0
2017-Sep-24 08:54N 29°45' W 095°06'2 0.6
2017-Sep-24 06:20N 29°44' W 095°07'0 0.1
2017-Sep-24 05:51N 29°44' W 095°07'0 0.1
2017-Sep-24 04:03N 29°44' W 095°07'0 4.5
2017-Sep-24 03:57N 29°45' W 095°06'0 0.3
2017-Sep-24 03:24N 29°45' W 095°07'0 0.0
2017-Sep-24 01:30N 29°45' W 095°07'0 0.0
2017-Sep-24 01:00N 29°45' W 095°07'0 0.0
2017-Sep-24 00:26N 29°45' W 095°07'0 0.0
2017-Sep-23 23:59N 29°45' W 095°07'0 0.0
2017-Sep-23 23:23N 29°45' W 095°07'0 0.0
2017-Sep-23 22:38N 29°45' W 095°07'0 0.0
2017-Sep-23 22:23N 29°45' W 095°07'0 0.0
2017-Sep-23 21:59N 29°45' W 095°07'0 0.0
2017-Sep-23 21:26N 29°45' W 095°07'0 0.0
2017-Sep-23 20:56N 29°45' W 095°07'2 1.5
2017-Sep-23 19:42N 29°46' W 095°05'2 0.0
2017-Sep-22 01:05N 29°45' W 095°07'0 0.0
2017-Sep-22 00:55N 29°45' W 095°07'0 0.0
2017-Sep-22 00:28N 29°45' W 095°07'1 1.0
2017-Sep-21 23:23N 29°45' W 095°06'0 0.2
2017-Sep-21 22:46N 29°45' W 095°06'1 3.4
2017-Sep-21 22:30N 29°46' W 095°05'4 0.4
2017-Sep-21 13:58N 29°44' W 095°09'0 0.0
2017-Sep-21 04:12N 29°44' W 095°09'2 1.3
2017-Sep-21 02:54N 29°45' W 095°11'1 1.6
2017-Sep-21 02:23N 29°45' W 095°10'1 1.3
2017-Sep-21 01:45N 29°45' W 095°11'4 2.3
2017-Sep-20 23:56N 29°43' W 095°15'3 4.7
2017-Sep-20 23:15N 29°45' W 095°12'2 6.9
2017-Sep-20 22:53N 29°44' W 095°09'2 0.2
2017-Sep-20 13:25N 29°45' W 095°07'0 0.2
2017-Sep-20 12:04N 29°45' W 095°06'2 8.0
2017-Sep-20 11:51N 29°46' W 095°05'3 8.3
2017-Sep-20 11:30N 29°44' W 095°03'4 8.1
2017-Sep-20 11:00N 29°41' W 094°59'0 0.9
2017-Sep-20 10:30N 29°41' W 094°59'1 1.2
2017-Sep-20 10:00N 29°41' W 094°60'0 0.0
2017-Sep-20 09:30N 29°41' W 094°60'0 0.0
2017-Sep-20 09:00N 29°41' W 094°60'0 0.0
2017-Sep-20 08:30N 29°41' W 094°60'0 0.0
2017-Sep-20 08:00N 29°41' W 094°60'1 1.6
2017-Sep-20 07:30N 29°42' W 094°60'4 8.0
2017-Sep-20 06:59N 29°44' W 095°03'6 1.1
2017-Sep-20 01:19N 29°45' W 095°10'1 0.1
2017-Sep-19 17:41N 29°45' W 095°11'1 0.2
2017-Sep-19 13:05N 29°44' W 095°12'1 3.6
2017-Sep-19 12:50N 29°45' W 095°11'1 0.1
2017-Sep-19 05:27N 29°45' W 095°10'0 0.8
2017-Sep-19 04:54N 29°44' W 095°10'2 1.1
2017-Sep-19 03:01N 29°44' W 095°12'0 1.6
2017-Sep-19 03:00N 29°44' W 095°12'1 0.7
2017-Sep-19 01:01N 29°45' W 095°10'0 0.0
2017-Sep-19 00:59N 29°45' W 095°10'3 5.3
2017-Sep-19 00:29N 29°43' W 095°13'0 0.2
2017-Sep-18 22:46N 29°44' W 095°13'1 4.2
2017-Sep-18 22:29N 29°45' W 095°12'2 4.0
2017-Sep-18 21:58N 29°44' W 095°09'3 5.7
2017-Sep-18 21:30N 29°45' W 095°06'2 4.1
2017-Sep-18 20:58N 29°45' W 095°04'3 5.5
2017-Sep-18 20:27N 29°43' W 095°01'2 5.6
2017-Sep-18 20:00N 29°41' W 094°59'0 0.7
2017-Sep-18 19:30N 29°41' W 094°59'3 6.6
2017-Sep-18 19:00N 29°44' W 095°01'4 0.8
2017-Sep-18 13:18N 29°45' W 095°06'2 5.2
2017-Sep-18 12:59N 29°46' W 095°05'3 4.9
2017-Sep-18 12:28N 29°44' W 095°03'0 0.2
2017-Sep-18 11:58N 29°44' W 095°03'2 3.2
2017-Sep-18 11:29N 29°44' W 095°01'1 3.0
2017-Sep-18 11:00N 29°42' W 095°01'0 0.8
2017-Sep-18 10:30N 29°42' W 095°01'1 2.7
2017-Sep-18 10:00N 29°41' W 095°00'0 0.7
2017-Sep-18 09:30N 29°41' W 094°60'1 2.9
2017-Sep-18 09:00N 29°40' W 094°59'3 6.5
2017-Sep-18 08:30N 29°42' W 095°01'0 0.0
2017-Sep-18 08:00N 29°42' W 095°01'0 0.0
2017-Sep-18 07:30N 29°42' W 095°01'0 0.0
2017-Sep-18 07:00N 29°42' W 095°01'0 0.0
2017-Sep-18 06:30N 29°42' W 095°01'0 0.0
2017-Sep-18 06:00N 29°42' W 095°01'0 0.0
2017-Sep-18 05:30N 29°42' W 095°01'0 0.0
2017-Sep-18 05:00N 29°42' W 095°01'0 0.0
2017-Sep-18 04:29N 29°42' W 095°01'0 0.0
2017-Sep-18 04:00N 29°42' W 095°01'0 0.0
2017-Sep-18 03:30N 29°42' W 095°01'0 0.0
2017-Sep-18 02:59N 29°42' W 095°01'0 0.0
2017-Sep-18 02:30N 29°42' W 095°01'0 0.0
2017-Sep-18 02:00N 29°42' W 095°01'0 0.0
2017-Sep-18 01:30N 29°42' W 095°01'0 0.0
2017-Sep-18 01:00N 29°42' W 095°01'1 2.7
2017-Sep-18 00:28N 29°44' W 095°01'0 0.1
2017-Sep-18 00:00N 29°44' W 095°01'1 1.5
2017-Sep-17 23:04N 29°42' W 095°01'1 7.5
2017-Sep-17 22:59N 29°42' W 095°00'1 1.5
2017-Sep-17 22:30N 29°42' W 095°01'5 0.5
2017-Sep-17 11:13N 29°45' W 095°06'0 0.0
2017-Sep-17 10:36N 29°45' W 095°06'0 0.0
2017-Sep-17 10:26N 29°45' W 095°06'0 0.0
2017-Sep-17 09:48N 29°45' W 095°06'0 0.0
2017-Sep-17 09:27N 29°45' W 095°06'0 0.0
2017-Sep-17 08:56N 29°45' W 095°06'0 0.0
2017-Sep-17 08:27N 29°45' W 095°06'0 0.0
2017-Sep-17 07:53N 29°45' W 095°06'0 0.0
2017-Sep-17 07:30N 29°45' W 095°06'0 0.0
2017-Sep-17 06:42N 29°45' W 095°06'0 0.0
2017-Sep-17 06:13N 29°45' W 095°06'0 0.0
2017-Sep-17 05:58N 29°45' W 095°06'2 0.4
2017-Sep-17 00:05N 29°44' W 095°04'1 8.3
2017-Sep-17 00:00N 29°44' W 095°03'0 0.3
2017-Sep-16 23:30N 29°44' W 095°03'2 3.2
2017-Sep-16 22:53N 29°43' W 095°01'1 1.4
2017-Sep-16 22:30N 29°42' W 095°01'0 0.0
2017-Sep-16 22:00N 29°42' W 095°01'0 0.0
2017-Sep-16 21:30N 29°42' W 095°01'0 0.0
2017-Sep-16 21:00N 29°42' W 095°01'1 1.5
2017-Sep-16 20:16N 29°43' W 095°01'0 0.4
2017-Sep-16 19:40N 29°44' W 095°01'0 0.2
2017-Sep-16 19:19N 29°44' W 095°01'0 0.0
2017-Sep-16 18:51N 29°44' W 095°01'0 0.0
2017-Sep-16 18:30N 29°44' W 095°01'0 0.0
2017-Sep-16 17:56N 29°44' W 095°01'0 0.1
2017-Sep-16 17:22N 29°44' W 095°01'0 0.0
2017-Sep-16 17:00N 29°44' W 095°01'2 3.3
2017-Sep-16 16:30N 29°44' W 095°03'3 2.0
2017-Sep-16 15:00N 29°44' W 095°07'  
Track history (hours):
 
Tides and Currents Weather Stations Pressure Air Temp Water Temp Dewpoint Dewpoint Depression Visibility Wind Speed Wind Dir Waves Ship Positions

Matthew K

Owner: G & H Towing Company, GALVESTON, TX. More information available from US FCC via Universal Licensing System and Coast Guard Vessel Documentation Center.

Last reported at 2017-Sep-26 13:28 UTC. Time now 2017-Sep-26 16:35 UTC.
Position N 29°45' W 095°06'.

Length 30 m; draft 5.2 m.

Type: Tug. MMSI: 366921830.

Date/timePositionNaut miles runAvg speedWind from/ knotsBaromVisibWave heightAir tempDewpointWater temp
2017-Sep-26 13:28N 29°45' W 095°06'2 3.3
2017-Sep-26 12:57N 29°46' W 095°05'5 8.1
2017-Sep-26 12:21N 29°42' W 095°01'3 8.6
2017-Sep-26 11:59N 29°40' W 094°59'2 3.5
2017-Sep-26 11:30N 29°42' W 094°60'4 7.7
2017-Sep-26 11:00N 29°44' W 095°03'3 1.9
2017-Sep-26 09:26N 29°45' W 095°06'1 1.5
2017-Sep-26 08:41N 29°45' W 095°06'1 1.5
2017-Sep-26 07:41N 29°44' W 095°07'0 1.2
2017-Sep-26 07:30N 29°45' W 095°07'0 0.0
2017-Sep-26 07:00N 29°45' W 095°07'0 0.0
2017-Sep-26 06:26N 29°45' W 095°07'0 0.0
2017-Sep-26 06:00N 29°45' W 095°07'0 0.0
2017-Sep-26 05:30N 29°45' W 095°07'1 1.0
2017-Sep-26 04:29N 29°44' W 095°08'2 3.0
2017-Sep-26 03:58N 29°45' W 095°06'0 0.0
2017-Sep-25 09:48N 29°45' W 095°06'0 0.0
2017-Sep-25 09:30N 29°45' W 095°06'0 0.0
2017-Sep-25 09:00N 29°45' W 095°06'0 0.0
2017-Sep-25 08:30N 29°45' W 095°06'0 0.0
2017-Sep-25 02:20N 29°45' W 095°06'0 0.0
2017-Sep-24 23:37N 29°45' W 095°06'0 0.0
2017-Sep-24 23:20N 29°45' W 095°06'0 0.0
2017-Sep-24 23:00N 29°45' W 095°06'0 0.0
2017-Sep-24 22:29N 29°45' W 095°06'0 0.0
2017-Sep-24 21:54N 29°45' W 095°06'1 2.9
2017-Sep-24 21:29N 29°44' W 095°08'0 0.0
2017-Sep-24 21:00N 29°44' W 095°08'1 2.0
2017-Sep-24 20:30N 29°44' W 095°06'0 0.0
2017-Sep-24 17:05N 29°44' W 095°07'0 0.4
2017-Sep-24 16:39N 29°44' W 095°07'1 0.1
2017-Sep-24 11:44N 29°44' W 095°07'1 0.5
2017-Sep-24 10:08N 29°44' W 095°07'2 3.4
2017-Sep-24 09:40N 29°46' W 095°05'0 1.0
2017-Sep-24 09:23N 29°46' W 095°05'0 1.0
2017-Sep-24 08:54N 29°45' W 095°06'2 0.6
2017-Sep-24 06:20N 29°44' W 095°07'0 0.1
2017-Sep-24 05:51N 29°44' W 095°07'0 0.1
2017-Sep-24 04:03N 29°44' W 095°07'0 4.5
2017-Sep-24 03:57N 29°45' W 095°06'0 0.3
2017-Sep-24 03:24N 29°45' W 095°07'0 0.0
2017-Sep-24 01:30N 29°45' W 095°07'0 0.0
2017-Sep-24 01:00N 29°45' W 095°07'0 0.0
2017-Sep-24 00:26N 29°45' W 095°07'0 0.0
2017-Sep-23 23:59N 29°45' W 095°07'0 0.0
2017-Sep-23 23:23N 29°45' W 095°07'0 0.0
2017-Sep-23 22:38N 29°45' W 095°07'0 0.0
2017-Sep-23 22:23N 29°45' W 095°07'0 0.0
2017-Sep-23 21:59N 29°45' W 095°07'0 0.0
2017-Sep-23 21:26N 29°45' W 095°07'0 0.0
2017-Sep-23 20:56N 29°45' W 095°07'2 1.5
2017-Sep-23 19:42N 29°46' W 095°05'2 0.0
2017-Sep-22 01:05N 29°45' W 095°07'0 0.0
2017-Sep-22 00:55N 29°45' W 095°07'0 0.0
2017-Sep-22 00:28N 29°45' W 095°07'1 1.0
2017-Sep-21 23:23N 29°45' W 095°06'0 0.2
2017-Sep-21 22:46N 29°45' W 095°06'1 3.4
2017-Sep-21 22:30N 29°46' W 095°05'4 0.4
2017-Sep-21 13:58N 29°44' W 095°09'0 0.0
2017-Sep-21 04:12N 29°44' W 095°09'2 1.3
2017-Sep-21 02:54N 29°45' W 095°11'1 1.6
2017-Sep-21 02:23N 29°45' W 095°10'1 1.3
2017-Sep-21 01:45N 29°45' W 095°11'4 2.3
2017-Sep-20 23:56N 29°43' W 095°15'3 4.7
2017-Sep-20 23:15N 29°45' W 095°12'2 6.9
2017-Sep-20 22:53N 29°44' W 095°09'2 0.2
2017-Sep-20 13:25N 29°45' W 095°07'0 0.2
2017-Sep-20 12:04N 29°45' W 095°06'2 8.0
2017-Sep-20 11:51N 29°46' W 095°05'3 8.3
2017-Sep-20 11:30N 29°44' W 095°03'4 8.1
2017-Sep-20 11:00N 29°41' W 094°59'0 0.9
2017-Sep-20 10:30N 29°41' W 094°59'1 1.2
2017-Sep-20 10:00N 29°41' W 094°60'0 0.0
2017-Sep-20 09:30N 29°41' W 094°60'0 0.0
2017-Sep-20 09:00N 29°41' W 094°60'0 0.0
2017-Sep-20 08:30N 29°41' W 094°60'0 0.0
2017-Sep-20 08:00N 29°41' W 094°60'1 1.6
2017-Sep-20 07:30N 29°42' W 094°60'4 8.0
2017-Sep-20 06:59N 29°44' W 095°03'6 1.1
2017-Sep-20 01:19N 29°45' W 095°10'1 0.1
2017-Sep-19 17:41N 29°45' W 095°11'1 0.2
2017-Sep-19 13:05N 29°44' W 095°12'1 3.6
2017-Sep-19 12:50N 29°45' W 095°11'1 0.1
2017-Sep-19 05:27N 29°45' W 095°10'0 0.8
2017-Sep-19 04:54N 29°44' W 095°10'2 1.1
2017-Sep-19 03:01N 29°44' W 095°12'0 1.6
2017-Sep-19 03:00N 29°44' W 095°12'1 0.7
2017-Sep-19 01:01N 29°45' W 095°10'0 0.0
2017-Sep-19 00:59N 29°45' W 095°10'3 5.3
2017-Sep-19 00:29N 29°43' W 095°13'0 0.2
2017-Sep-18 22:46N 29°44' W 095°13'1 4.2
2017-Sep-18 22:29N 29°45' W 095°12'2 4.0
2017-Sep-18 21:58N 29°44' W 095°09'3 5.7
2017-Sep-18 21:30N 29°45' W 095°06'2 4.1
2017-Sep-18 20:58N 29°45' W 095°04'3 5.5
2017-Sep-18 20:27N 29°43' W 095°01'2 5.6
2017-Sep-18 20:00N 29°41' W 094°59'0 0.7
2017-Sep-18 19:30N 29°41' W 094°59'3 6.6
2017-Sep-18 19:00N 29°44' W 095°01'4 0.8
2017-Sep-18 13:18N 29°45' W 095°06'2 5.2
2017-Sep-18 12:59N 29°46' W 095°05'3 4.9
2017-Sep-18 12:28N 29°44' W 095°03'0 0.2
2017-Sep-18 11:58N 29°44' W 095°03'2 3.2
2017-Sep-18 11:29N 29°44' W 095°01'1 3.0
2017-Sep-18 11:00N 29°42' W 095°01'0 0.8
2017-Sep-18 10:30N 29°42' W 095°01'1 2.7
2017-Sep-18 10:00N 29°41' W 095°00'0 0.7
2017-Sep-18 09:30N 29°41' W 094°60'1 2.9
2017-Sep-18 09:00N 29°40' W 094°59'3 6.5
2017-Sep-18 08:30N 29°42' W 095°01'0 0.0
2017-Sep-18 08:00N 29°42' W 095°01'0 0.0
2017-Sep-18 07:30N 29°42' W 095°01'0 0.0
2017-Sep-18 07:00N 29°42' W 095°01'0 0.0
2017-Sep-18 06:30N 29°42' W 095°01'0 0.0
2017-Sep-18 06:00N 29°42' W 095°01'0 0.0
2017-Sep-18 05:30N 29°42' W 095°01'0 0.0
2017-Sep-18 05:00N 29°42' W 095°01'0 0.0
2017-Sep-18 04:29N 29°42' W 095°01'0 0.0
2017-Sep-18 04:00N 29°42' W 095°01'0 0.0
2017-Sep-18 03:30N 29°42' W 095°01'0 0.0
2017-Sep-18 02:59N 29°42' W 095°01'0 0.0
2017-Sep-18 02:30N 29°42' W 095°01'0 0.0
2017-Sep-18 02:00N 29°42' W 095°01'0 0.0
2017-Sep-18 01:30N 29°42' W 095°01'0 0.0
2017-Sep-18 01:00N 29°42' W 095°01'1 2.7
2017-Sep-18 00:28N 29°44' W 095°01'0 0.1
2017-Sep-18 00:00N 29°44' W 095°01'1 1.5
2017-Sep-17 23:04N 29°42' W 095°01'1 7.5
2017-Sep-17 22:59N 29°42' W 095°00'1 1.5
2017-Sep-17 22:30N 29°42' W 095°01'5 0.5
2017-Sep-17 11:13N 29°45' W 095°06'0 0.0
2017-Sep-17 10:36N 29°45' W 095°06'0 0.0
2017-Sep-17 10:26N 29°45' W 095°06'0 0.0
2017-Sep-17 09:48N 29°45' W 095°06'0 0.0
2017-Sep-17 09:27N 29°45' W 095°06'0 0.0
2017-Sep-17 08:56N 29°45' W 095°06'0 0.0
2017-Sep-17 08:27N 29°45' W 095°06'0 0.0
2017-Sep-17 07:53N 29°45' W 095°06'0 0.0
2017-Sep-17 07:30N 29°45' W 095°06'0 0.0
2017-Sep-17 06:42N 29°45' W 095°06'0 0.0
2017-Sep-17 06:13N 29°45' W 095°06'0 0.0
2017-Sep-17 05:58N 29°45' W 095°06'2 0.4
2017-Sep-17 00:05N 29°44' W 095°04'1 8.3
2017-Sep-17 00:00N 29°44' W 095°03'0 0.3
2017-Sep-16 23:30N 29°44' W 095°03'2 3.2
2017-Sep-16 22:53N 29°43' W 095°01'1 1.4
2017-Sep-16 22:30N 29°42' W 095°01'0 0.0
2017-Sep-16 22:00N 29°42' W 095°01'0 0.0
2017-Sep-16 21:30N 29°42' W 095°01'0 0.0
2017-Sep-16 21:00N 29°42' W 095°01'1 1.5
2017-Sep-16 20:16N 29°43' W 095°01'0 0.4
2017-Sep-16 19:40N 29°44' W 095°01'0 0.2
2017-Sep-16 19:19N 29°44' W 095°01'0 0.0
2017-Sep-16 18:51N 29°44' W 095°01'0 0.0
2017-Sep-16 18:30N 29°44' W 095°01'0 0.0
2017-Sep-16 17:56N 29°44' W 095°01'0 0.1
2017-Sep-16 17:22N 29°44' W 095°01'0 0.0
2017-Sep-16 17:00N 29°44' W 095°01'2 3.3
2017-Sep-16 16:30N 29°44' W 095°03'3 2.0
2017-Sep-16 15:00N 29°44' W 095°07'  

Dump ship's entire track history